sensor_id;sensor_type;location;lat;lon;timestamp;P1;durP1;ratioP1;P2;durP2;ratioP2
32321;SDS011;61553;48.994;8.940;2023-04-21T00:02:23;27.25;;;16.83;;
32321;SDS011;61553;48.994;8.940;2023-04-21T00:04:51;32.65;;;18.15;;
32321;SDS011;61553;48.994;8.940;2023-04-21T00:07:17;33.13;;;18.10;;
32321;SDS011;61553;48.994;8.940;2023-04-21T00:09:44;36.67;;;19.67;;
32321;SDS011;61553;48.994;8.940;2023-04-21T00:12:10;33.42;;;19.50;;
32321;SDS011;61553;48.994;8.940;2023-04-21T00:14:36;43.60;;;23.17;;
32321;SDS011;61553;48.994;8.940;2023-04-21T00:17:02;36.20;;;21.95;;
32321;SDS011;61553;48.994;8.940;2023-04-21T00:19:27;35.70;;;21.00;;
32321;SDS011;61553;48.994;8.940;2023-04-21T00:21:53;33.13;;;20.15;;
32321;SDS011;61553;48.994;8.940;2023-04-21T00:24:22;32.47;;;19.40;;
32321;SDS011;61553;48.994;8.940;2023-04-21T00:26:49;34.25;;;20.45;;
32321;SDS011;61553;48.994;8.940;2023-04-21T00:29:15;34.10;;;19.90;;
32321;SDS011;61553;48.994;8.940;2023-04-21T00:31:40;33.08;;;18.48;;
32321;SDS011;61553;48.994;8.940;2023-04-21T00:34:06;31.33;;;18.15;;
32321;SDS011;61553;48.994;8.940;2023-04-21T00:36:32;30.92;;;18.90;;
32321;SDS011;61553;48.994;8.940;2023-04-21T00:38:57;32.58;;;18.92;;
32321;SDS011;61553;48.994;8.940;2023-04-21T00:41:23;37.35;;;20.25;;
32321;SDS011;61553;48.994;8.940;2023-04-21T00:44:05;35.08;;;20.42;;
32321;SDS011;61553;48.994;8.940;2023-04-21T00:46:32;37.17;;;22.70;;
32321;SDS011;61553;48.994;8.940;2023-04-21T00:48:59;38.03;;;21.83;;
32321;SDS011;61553;48.994;8.940;2023-04-21T00:51:28;38.20;;;21.42;;
32321;SDS011;61553;48.994;8.940;2023-04-21T00:53:57;37.80;;;21.77;;
32321;SDS011;61553;48.994;8.940;2023-04-21T00:56:24;44.55;;;25.05;;
32321;SDS011;61553;48.994;8.940;2023-04-21T00:58:50;41.88;;;24.05;;
32321;SDS011;61553;48.994;8.940;2023-04-21T01:01:17;41.47;;;23.02;;
32321;SDS011;61553;48.994;8.940;2023-04-21T01:03:43;41.30;;;23.25;;
32321;SDS011;61553;48.994;8.940;2023-04-21T01:06:11;42.67;;;24.20;;
32321;SDS011;61553;48.994;8.940;2023-04-21T01:08:36;42.45;;;24.27;;
32321;SDS011;61553;48.994;8.940;2023-04-21T01:11:09;45.53;;;25.05;;
32321;SDS011;61553;48.994;8.940;2023-04-21T01:13:36;42.85;;;24.27;;
32321;SDS011;61553;48.994;8.940;2023-04-21T01:16:02;46.13;;;26.58;;
32321;SDS011;61553;48.994;8.940;2023-04-21T01:18:28;47.90;;;27.95;;
32321;SDS011;61553;48.994;8.940;2023-04-21T01:20:54;49.33;;;27.50;;
32321;SDS011;61553;48.994;8.940;2023-04-21T01:23:20;54.97;;;28.55;;
32321;SDS011;61553;48.994;8.940;2023-04-21T01:25:46;48.92;;;26.98;;
32321;SDS011;61553;48.994;8.940;2023-04-21T01:28:12;47.88;;;27.08;;
32321;SDS011;61553;48.994;8.940;2023-04-21T01:30:38;52.90;;;27.50;;
32321;SDS011;61553;48.994;8.940;2023-04-21T01:33:03;45.22;;;24.98;;
32321;SDS011;61553;48.994;8.940;2023-04-21T01:35:29;50.13;;;27.15;;
32321;SDS011;61553;48.994;8.940;2023-04-21T01:37:55;50.70;;;28.15;;
32321;SDS011;61553;48.994;8.940;2023-04-21T01:40:21;48.15;;;26.83;;
32321;SDS011;61553;48.994;8.940;2023-04-21T01:42:46;44.55;;;26.02;;
32321;SDS011;61553;48.994;8.940;2023-04-21T01:45:12;45.70;;;26.23;;
32321;SDS011;61553;48.994;8.940;2023-04-21T01:47:37;50.60;;;25.67;;
32321;SDS011;61553;48.994;8.940;2023-04-21T01:50:03;52.03;;;26.50;;
32321;SDS011;61553;48.994;8.940;2023-04-21T01:52:29;41.58;;;24.98;;
32321;SDS011;61553;48.994;8.940;2023-04-21T01:54:55;42.80;;;24.45;;
32321;SDS011;61553;48.994;8.940;2023-04-21T01:57:20;37.78;;;22.10;;
32321;SDS011;61553;48.994;8.940;2023-04-21T01:59:46;36.95;;;22.48;;
32321;SDS011;61553;48.994;8.940;2023-04-21T02:02:13;36.92;;;21.77;;
32321;SDS011;61553;48.994;8.940;2023-04-21T02:04:39;36.35;;;21.65;;
32321;SDS011;61553;48.994;8.940;2023-04-21T02:07:04;34.15;;;20.45;;
32321;SDS011;61553;48.994;8.940;2023-04-21T02:09:30;35.50;;;19.75;;
32321;SDS011;61553;48.994;8.940;2023-04-21T02:11:56;34.45;;;20.50;;
32321;SDS011;61553;48.994;8.940;2023-04-21T02:14:23;43.38;;;24.50;;
32321;SDS011;61553;48.994;8.940;2023-04-21T02:16:49;40.85;;;23.95;;
32321;SDS011;61553;48.994;8.940;2023-04-21T02:19:15;40.72;;;22.95;;
32321;SDS011;61553;48.994;8.940;2023-04-21T02:21:40;35.78;;;21.90;;
32321;SDS011;61553;48.994;8.940;2023-04-21T02:24:06;35.67;;;21.17;;
32321;SDS011;61553;48.994;8.940;2023-04-21T02:26:32;39.55;;;22.27;;
32321;SDS011;61553;48.994;8.940;2023-04-21T02:28:57;35.47;;;20.60;;
32321;SDS011;61553;48.994;8.940;2023-04-21T02:31:23;28.38;;;19.35;;
32321;SDS011;61553;48.994;8.940;2023-04-21T02:33:49;30.60;;;18.98;;
32321;SDS011;61553;48.994;8.940;2023-04-21T02:36:14;36.72;;;19.05;;
32321;SDS011;61553;48.994;8.940;2023-04-21T02:38:40;29.33;;;17.75;;
32321;SDS011;61553;48.994;8.940;2023-04-21T02:41:05;31.00;;;18.25;;
32321;SDS011;61553;48.994;8.940;2023-04-21T02:43:31;36.05;;;21.13;;
32321;SDS011;61553;48.994;8.940;2023-04-21T02:45:57;33.30;;;19.35;;
32321;SDS011;61553;48.994;8.940;2023-04-21T02:48:22;31.90;;;18.55;;
32321;SDS011;61553;48.994;8.940;2023-04-21T02:50:48;38.25;;;23.48;;
32321;SDS011;61553;48.994;8.940;2023-04-21T02:53:14;81.45;;;53.15;;
32321;SDS011;61553;48.994;8.940;2023-04-21T02:55:41;61.22;;;41.25;;
32321;SDS011;61553;48.994;8.940;2023-04-21T02:58:06;43.95;;;25.67;;
32321;SDS011;61553;48.994;8.940;2023-04-21T03:00:32;71.55;;;44.03;;
32321;SDS011;61553;48.994;8.940;2023-04-21T03:03:14;55.38;;;34.45;;
32321;SDS011;61553;48.994;8.940;2023-04-21T03:05:40;44.05;;;25.35;;
32321;SDS011;61553;48.994;8.940;2023-04-21T03:08:05;44.92;;;26.75;;
32321;SDS011;61553;48.994;8.940;2023-04-21T03:10:31;37.45;;;20.77;;
32321;SDS011;61553;48.994;8.940;2023-04-21T03:12:57;29.50;;;16.33;;
32321;SDS011;61553;48.994;8.940;2023-04-21T03:15:22;33.95;;;17.67;;
32321;SDS011;61553;48.994;8.940;2023-04-21T03:17:48;39.42;;;19.92;;
32321;SDS011;61553;48.994;8.940;2023-04-21T03:20:13;26.88;;;15.65;;
32321;SDS011;61553;48.994;8.940;2023-04-21T03:22:40;27.38;;;15.63;;
32321;SDS011;61553;48.994;8.940;2023-04-21T03:25:05;37.90;;;16.25;;
32321;SDS011;61553;48.994;8.940;2023-04-21T03:27:31;24.63;;;16.33;;
32321;SDS011;61553;48.994;8.940;2023-04-21T03:29:58;24.67;;;16.02;;
32321;SDS011;61553;48.994;8.940;2023-04-21T03:32:23;27.33;;;16.80;;
32321;SDS011;61553;48.994;8.940;2023-04-21T03:34:49;27.63;;;16.95;;
32321;SDS011;61553;48.994;8.940;2023-04-21T03:37:15;58.78;;;22.10;;
32321;SDS011;61553;48.994;8.940;2023-04-21T03:39:41;54.67;;;26.13;;
32321;SDS011;61553;48.994;8.940;2023-04-21T03:42:06;40.55;;;21.67;;
32321;SDS011;61553;48.994;8.940;2023-04-21T03:44:32;43.17;;;25.85;;
32321;SDS011;61553;48.994;8.940;2023-04-21T03:46:58;46.80;;;24.67;;
32321;SDS011;61553;48.994;8.940;2023-04-21T03:49:24;43.22;;;24.80;;
32321;SDS011;61553;48.994;8.940;2023-04-21T03:51:50;47.95;;;26.35;;
32321;SDS011;61553;48.994;8.940;2023-04-21T03:54:15;45.00;;;26.50;;
32321;SDS011;61553;48.994;8.940;2023-04-21T03:56:41;44.03;;;23.38;;
32321;SDS011;61553;48.994;8.940;2023-04-21T03:59:06;35.63;;;21.65;;
32321;SDS011;61553;48.994;8.940;2023-04-21T04:01:32;36.55;;;21.10;;
32321;SDS011;61553;48.994;8.940;2023-04-21T04:03:58;40.83;;;22.20;;
32321;SDS011;61553;48.994;8.940;2023-04-21T04:06:24;60.35;;;26.17;;
32321;SDS011;61553;48.994;8.940;2023-04-21T04:08:50;40.28;;;22.98;;
32321;SDS011;61553;48.994;8.940;2023-04-21T04:11:16;47.28;;;22.45;;
32321;SDS011;61553;48.994;8.940;2023-04-21T04:13:41;81.32;;;28.33;;
32321;SDS011;61553;48.994;8.940;2023-04-21T04:16:07;51.47;;;26.02;;
32321;SDS011;61553;48.994;8.940;2023-04-21T04:18:32;77.32;;;32.92;;
32321;SDS011;61553;48.994;8.940;2023-04-21T04:21:03;56.40;;;29.95;;
32321;SDS011;61553;48.994;8.940;2023-04-21T04:23:30;78.78;;;32.50;;
32321;SDS011;61553;48.994;8.940;2023-04-21T04:25:56;81.60;;;34.15;;
32321;SDS011;61553;48.994;8.940;2023-04-21T04:28:21;87.25;;;40.60;;
32321;SDS011;61553;48.994;8.940;2023-04-21T04:30:47;62.65;;;31.90;;
32321;SDS011;61553;48.994;8.940;2023-04-21T04:33:13;52.97;;;26.80;;
32321;SDS011;61553;48.994;8.940;2023-04-21T04:35:38;41.97;;;24.15;;
32321;SDS011;61553;48.994;8.940;2023-04-21T04:38:04;44.65;;;22.77;;
32321;SDS011;61553;48.994;8.940;2023-04-21T04:40:31;44.17;;;21.20;;
32321;SDS011;61553;48.994;8.940;2023-04-21T04:42:57;68.97;;;26.67;;
32321;SDS011;61553;48.994;8.940;2023-04-21T04:45:25;55.53;;;24.77;;
32321;SDS011;61553;48.994;8.940;2023-04-21T04:47:52;59.53;;;24.63;;
32321;SDS011;61553;48.994;8.940;2023-04-21T04:50:18;66.90;;;35.08;;
32321;SDS011;61553;48.994;8.940;2023-04-21T04:52:43;56.53;;;27.42;;
32321;SDS011;61553;48.994;8.940;2023-04-21T04:55:11;52.85;;;26.33;;
32321;SDS011;61553;48.994;8.940;2023-04-21T04:57:37;37.65;;;21.73;;
32321;SDS011;61553;48.994;8.940;2023-04-21T05:00:03;34.58;;;19.67;;
32321;SDS011;61553;48.994;8.940;2023-04-21T05:02:36;43.60;;;22.58;;
32321;SDS011;61553;48.994;8.940;2023-04-21T05:05:02;65.32;;;26.88;;
32321;SDS011;61553;48.994;8.940;2023-04-21T05:07:29;68.43;;;26.45;;
32321;SDS011;61553;48.994;8.940;2023-04-21T05:09:55;49.50;;;25.95;;
32321;SDS011;61553;48.994;8.940;2023-04-21T05:12:20;47.60;;;24.08;;
32321;SDS011;61553;48.994;8.940;2023-04-21T05:14:46;43.15;;;23.35;;
32321;SDS011;61553;48.994;8.940;2023-04-21T05:17:11;48.55;;;23.80;;
32321;SDS011;61553;48.994;8.940;2023-04-21T05:19:37;56.00;;;22.55;;
32321;SDS011;61553;48.994;8.940;2023-04-21T05:22:03;46.42;;;23.85;;
32321;SDS011;61553;48.994;8.940;2023-04-21T05:24:30;48.75;;;22.65;;
32321;SDS011;61553;48.994;8.940;2023-04-21T05:26:59;42.10;;;20.52;;
32321;SDS011;61553;48.994;8.940;2023-04-21T05:29:27;71.57;;;23.70;;
32321;SDS011;61553;48.994;8.940;2023-04-21T05:31:53;67.43;;;26.25;;
32321;SDS011;61553;48.994;8.940;2023-04-21T05:34:19;45.15;;;24.83;;
32321;SDS011;61553;48.994;8.940;2023-04-21T05:36:45;44.22;;;25.65;;
32321;SDS011;61553;48.994;8.940;2023-04-21T05:39:12;49.97;;;26.83;;
32321;SDS011;61553;48.994;8.940;2023-04-21T05:41:38;53.58;;;27.45;;
32321;SDS011;61553;48.994;8.940;2023-04-21T05:44:04;52.65;;;28.35;;
32321;SDS011;61553;48.994;8.940;2023-04-21T05:46:29;59.83;;;30.27;;
32321;SDS011;61553;48.994;8.940;2023-04-21T05:48:55;56.03;;;29.67;;
32321;SDS011;61553;48.994;8.940;2023-04-21T05:51:21;76.50;;;36.20;;
32321;SDS011;61553;48.994;8.940;2023-04-21T05:53:46;78.13;;;35.88;;
32321;SDS011;61553;48.994;8.940;2023-04-21T05:56:12;81.75;;;36.33;;
32321;SDS011;61553;48.994;8.940;2023-04-21T05:58:38;85.93;;;36.92;;
32321;SDS011;61553;48.994;8.940;2023-04-21T06:01:04;85.43;;;36.78;;
32321;SDS011;61553;48.994;8.940;2023-04-21T06:03:32;118.43;;;36.30;;
32321;SDS011;61553;48.994;8.940;2023-04-21T06:05:59;105.63;;;36.42;;
32321;SDS011;61553;48.994;8.940;2023-04-21T06:08:25;67.03;;;32.75;;
32321;SDS011;61553;48.994;8.940;2023-04-21T06:10:51;69.60;;;32.67;;
32321;SDS011;61553;48.994;8.940;2023-04-21T06:13:16;65.78;;;32.15;;
32321;SDS011;61553;48.994;8.940;2023-04-21T06:15:42;66.93;;;31.98;;
32321;SDS011;61553;48.994;8.940;2023-04-21T06:18:08;54.80;;;30.08;;
32321;SDS011;61553;48.994;8.940;2023-04-21T06:20:34;51.33;;;29.92;;
32321;SDS011;61553;48.994;8.940;2023-04-21T06:22:59;52.13;;;28.67;;
32321;SDS011;61553;48.994;8.940;2023-04-21T06:25:25;53.05;;;28.90;;
32321;SDS011;61553;48.994;8.940;2023-04-21T06:27:51;49.55;;;27.33;;
32321;SDS011;61553;48.994;8.940;2023-04-21T06:30:16;46.38;;;26.45;;
32321;SDS011;61553;48.994;8.940;2023-04-21T06:32:42;62.83;;;33.90;;
32321;SDS011;61553;48.994;8.940;2023-04-21T06:35:12;51.50;;;29.85;;
32321;SDS011;61553;48.994;8.940;2023-04-21T06:37:39;51.88;;;30.73;;
32321;SDS011;61553;48.994;8.940;2023-04-21T06:40:05;50.15;;;28.92;;
32321;SDS011;61553;48.994;8.940;2023-04-21T06:42:32;41.90;;;24.88;;
32321;SDS011;61553;48.994;8.940;2023-04-21T06:44:57;41.42;;;26.10;;
32321;SDS011;61553;48.994;8.940;2023-04-21T06:47:23;37.13;;;23.60;;
32321;SDS011;61553;48.994;8.940;2023-04-21T06:49:48;56.03;;;33.70;;
32321;SDS011;61553;48.994;8.940;2023-04-21T06:52:14;48.17;;;28.08;;
32321;SDS011;61553;48.994;8.940;2023-04-21T06:54:40;27.38;;;19.00;;
32321;SDS011;61553;48.994;8.940;2023-04-21T06:57:05;19.90;;;13.75;;
32321;SDS011;61553;48.994;8.940;2023-04-21T06:59:31;21.10;;;15.27;;
32321;SDS011;61553;48.994;8.940;2023-04-21T07:01:58;18.48;;;13.57;;
32321;SDS011;61553;48.994;8.940;2023-04-21T07:04:24;17.10;;;13.65;;
32321;SDS011;61553;48.994;8.940;2023-04-21T07:06:53;21.00;;;14.90;;
32321;SDS011;61553;48.994;8.940;2023-04-21T07:09:19;19.27;;;15.05;;
32321;SDS011;61553;48.994;8.940;2023-04-21T07:11:45;26.55;;;17.52;;
32321;SDS011;61553;48.994;8.940;2023-04-21T07:14:11;16.83;;;13.48;;
32321;SDS011;61553;48.994;8.940;2023-04-21T07:16:36;18.35;;;14.70;;
32321;SDS011;61553;48.994;8.940;2023-04-21T07:19:02;20.65;;;15.73;;
32321;SDS011;61553;48.994;8.940;2023-04-21T07:21:28;21.45;;;15.70;;
32321;SDS011;61553;48.994;8.940;2023-04-21T07:24:00;24.23;;;16.45;;
32321;SDS011;61553;48.994;8.940;2023-04-21T07:26:26;23.17;;;17.02;;
32321;SDS011;61553;48.994;8.940;2023-04-21T07:28:52;19.45;;;15.00;;
32321;SDS011;61553;48.994;8.940;2023-04-21T07:31:19;21.98;;;16.58;;
32321;SDS011;61553;48.994;8.940;2023-04-21T07:33:45;23.02;;;16.52;;
32321;SDS011;61553;48.994;8.940;2023-04-21T07:36:11;22.85;;;16.35;;
32321;SDS011;61553;48.994;8.940;2023-04-21T07:38:36;24.58;;;17.17;;
32321;SDS011;61553;48.994;8.940;2023-04-21T07:41:07;24.63;;;18.63;;
32321;SDS011;61553;48.994;8.940;2023-04-21T07:43:38;22.77;;;16.88;;
32321;SDS011;61553;48.994;8.940;2023-04-21T07:46:04;26.33;;;19.83;;
32321;SDS011;61553;48.994;8.940;2023-04-21T07:48:30;23.02;;;17.77;;
32321;SDS011;61553;48.994;8.940;2023-04-21T07:50:56;21.92;;;16.67;;
32321;SDS011;61553;48.994;8.940;2023-04-21T07:53:25;26.60;;;19.40;;
32321;SDS011;61553;48.994;8.940;2023-04-21T07:55:51;30.55;;;20.33;;
32321;SDS011;61553;48.994;8.940;2023-04-21T07:58:17;24.77;;;17.63;;
32321;SDS011;61553;48.994;8.940;2023-04-21T08:00:42;26.48;;;18.23;;
32321;SDS011;61553;48.994;8.940;2023-04-21T08:03:08;21.17;;;16.15;;
32321;SDS011;61553;48.994;8.940;2023-04-21T08:05:34;27.38;;;17.77;;
32321;SDS011;61553;48.994;8.940;2023-04-21T08:08:00;23.10;;;17.52;;
32321;SDS011;61553;48.994;8.940;2023-04-21T08:10:26;23.80;;;15.70;;
32321;SDS011;61553;48.994;8.940;2023-04-21T08:12:51;25.65;;;17.13;;
32321;SDS011;61553;48.994;8.940;2023-04-21T08:15:17;24.48;;;16.38;;
32321;SDS011;61553;48.994;8.940;2023-04-21T08:17:43;21.45;;;15.15;;
32321;SDS011;61553;48.994;8.940;2023-04-21T08:20:08;21.35;;;14.77;;
32321;SDS011;61553;48.994;8.940;2023-04-21T08:22:34;19.85;;;14.05;;
32321;SDS011;61553;48.994;8.940;2023-04-21T08:25:03;17.65;;;13.73;;
32321;SDS011;61553;48.994;8.940;2023-04-21T08:27:30;14.65;;;11.43;;
32321;SDS011;61553;48.994;8.940;2023-04-21T08:29:55;14.50;;;10.50;;
32321;SDS011;61553;48.994;8.940;2023-04-21T08:32:21;15.25;;;11.65;;
32321;SDS011;61553;48.994;8.940;2023-04-21T08:34:50;15.23;;;10.82;;
32321;SDS011;61553;48.994;8.940;2023-04-21T08:37:17;15.70;;;10.52;;
32321;SDS011;61553;48.994;8.940;2023-04-21T08:39:44;12.68;;;10.15;;
32321;SDS011;61553;48.994;8.940;2023-04-21T08:42:11;13.23;;;10.90;;
32321;SDS011;61553;48.994;8.940;2023-04-21T08:44:43;13.13;;;9.82;;
32321;SDS011;61553;48.994;8.940;2023-04-21T08:47:10;11.30;;;9.70;;
32321;SDS011;61553;48.994;8.940;2023-04-21T08:49:37;14.23;;;11.80;;
32321;SDS011;61553;48.994;8.940;2023-04-21T08:52:03;11.82;;;9.05;;
32321;SDS011;61553;48.994;8.940;2023-04-21T08:54:29;11.82;;;9.63;;
32321;SDS011;61553;48.994;8.940;2023-04-21T08:56:56;10.40;;;8.98;;
32321;SDS011;61553;48.994;8.940;2023-04-21T08:59:22;9.82;;;8.35;;
32321;SDS011;61553;48.994;8.940;2023-04-21T09:04:44;9.52;;;8.07;;
32321;SDS011;61553;48.994;8.940;2023-04-21T09:07:11;8.65;;;7.70;;
32321;SDS011;61553;48.994;8.940;2023-04-21T09:09:55;7.80;;;7.00;;
32321;SDS011;61553;48.994;8.940;2023-04-21T09:12:21;9.43;;;7.45;;
32321;SDS011;61553;48.994;8.940;2023-04-21T09:14:47;9.75;;;7.68;;
32321;SDS011;61553;48.994;8.940;2023-04-21T09:17:14;10.55;;;8.40;;
32321;SDS011;61553;48.994;8.940;2023-04-21T09:19:41;7.82;;;6.70;;
32321;SDS011;61553;48.994;8.940;2023-04-21T09:22:06;9.38;;;7.20;;
32321;SDS011;61553;48.994;8.940;2023-04-21T09:24:32;11.15;;;9.38;;
32321;SDS011;61553;48.994;8.940;2023-04-21T09:26:58;11.93;;;9.15;;
32321;SDS011;61553;48.994;8.940;2023-04-21T09:29:28;8.38;;;7.47;;
32321;SDS011;61553;48.994;8.940;2023-04-21T09:31:54;10.10;;;8.50;;
32321;SDS011;61553;48.994;8.940;2023-04-21T09:34:21;7.25;;;5.38;;
32321;SDS011;61553;48.994;8.940;2023-04-21T09:37:00;8.13;;;6.72;;
32321;SDS011;61553;48.994;8.940;2023-04-21T09:39:29;7.68;;;6.72;;
32321;SDS011;61553;48.994;8.940;2023-04-21T09:41:55;6.65;;;5.90;;
32321;SDS011;61553;48.994;8.940;2023-04-21T09:44:22;7.78;;;6.95;;
32321;SDS011;61553;48.994;8.940;2023-04-21T09:46:53;8.70;;;6.43;;
32321;SDS011;61553;48.994;8.940;2023-04-21T09:49:28;10.75;;;6.68;;
32321;SDS011;61553;48.994;8.940;2023-04-21T09:51:58;10.30;;;6.97;;
32321;SDS011;61553;48.994;8.940;2023-04-21T09:54:32;6.78;;;5.95;;
32321;SDS011;61553;48.994;8.940;2023-04-21T09:57:01;6.35;;;5.65;;
32321;SDS011;61553;48.994;8.940;2023-04-21T09:59:33;8.48;;;6.75;;
32321;SDS011;61553;48.994;8.940;2023-04-21T10:02:03;8.20;;;7.18;;
32321;SDS011;61553;48.994;8.940;2023-04-21T10:04:30;9.57;;;7.10;;
32321;SDS011;61553;48.994;8.940;2023-04-21T10:06:57;7.20;;;6.47;;
32321;SDS011;61553;48.994;8.940;2023-04-21T10:09:24;7.30;;;6.30;;
32321;SDS011;61553;48.994;8.940;2023-04-21T10:11:55;9.63;;;7.77;;
32321;SDS011;61553;48.994;8.940;2023-04-21T10:14:22;8.70;;;6.93;;
32321;SDS011;61553;48.994;8.940;2023-04-21T10:17:00;9.50;;;6.80;;
32321;SDS011;61553;48.994;8.940;2023-04-21T10:19:29;7.50;;;6.22;;
32321;SDS011;61553;48.994;8.940;2023-04-21T10:21:59;6.57;;;5.65;;
32321;SDS011;61553;48.994;8.940;2023-04-21T10:24:28;7.10;;;5.63;;
32321;SDS011;61553;48.994;8.940;2023-04-21T10:26:55;6.35;;;5.30;;
32321;SDS011;61553;48.994;8.940;2023-04-21T10:29:29;6.03;;;5.03;;
32321;SDS011;61553;48.994;8.940;2023-04-21T10:31:57;7.53;;;5.13;;
32321;SDS011;61553;48.994;8.940;2023-04-21T10:34:33;7.22;;;5.85;;
32321;SDS011;61553;48.994;8.940;2023-04-21T10:39:42;7.88;;;6.47;;
32321;SDS011;61553;48.994;8.940;2023-04-21T10:50:29;10.60;;;7.75;;
32321;SDS011;61553;48.994;8.940;2023-04-21T10:53:00;11.45;;;7.15;;
32321;SDS011;61553;48.994;8.940;2023-04-21T10:55:36;10.70;;;7.50;;
32321;SDS011;61553;48.994;8.940;2023-04-21T10:58:02;11.40;;;8.25;;
32321;SDS011;61553;48.994;8.940;2023-04-21T11:00:29;11.02;;;8.55;;
32321;SDS011;61553;48.994;8.940;2023-04-21T11:02:56;9.88;;;7.82;;
32321;SDS011;61553;48.994;8.940;2023-04-21T11:05:26;11.05;;;8.75;;
32321;SDS011;61553;48.994;8.940;2023-04-21T11:08:16;12.70;;;8.00;;
32321;SDS011;61553;48.994;8.940;2023-04-21T11:13:19;11.25;;;8.40;;
32321;SDS011;61553;48.994;8.940;2023-04-21T11:16:19;15.45;;;9.38;;
32321;SDS011;61553;48.994;8.940;2023-04-21T11:21:05;13.50;;;9.75;;
32321;SDS011;61553;48.994;8.940;2023-04-21T11:23:32;13.05;;;9.75;;
32321;SDS011;61553;48.994;8.940;2023-04-21T11:25:58;14.07;;;10.50;;
32321;SDS011;61553;48.994;8.940;2023-04-21T11:28:24;12.95;;;9.27;;
32321;SDS011;61553;48.994;8.940;2023-04-21T11:30:49;14.73;;;9.48;;
32321;SDS011;61553;48.994;8.940;2023-04-21T11:33:15;14.25;;;10.25;;
32321;SDS011;61553;48.994;8.940;2023-04-21T11:35:41;13.60;;;8.63;;
32321;SDS011;61553;48.994;8.940;2023-04-21T11:38:07;13.45;;;9.90;;
32321;SDS011;61553;48.994;8.940;2023-04-21T11:40:46;12.43;;;8.52;;
32321;SDS011;61553;48.994;8.940;2023-04-21T11:43:13;13.27;;;9.93;;
32321;SDS011;61553;48.994;8.940;2023-04-21T11:45:41;13.77;;;9.38;;
32321;SDS011;61553;48.994;8.940;2023-04-21T11:48:16;14.38;;;10.07;;
32321;SDS011;61553;48.994;8.940;2023-04-21T11:50:49;13.25;;;9.20;;
32321;SDS011;61553;48.994;8.940;2023-04-21T11:53:15;16.45;;;10.45;;
32321;SDS011;61553;48.994;8.940;2023-04-21T11:55:41;14.38;;;9.68;;
32321;SDS011;61553;48.994;8.940;2023-04-21T11:58:10;11.23;;;8.82;;
32321;SDS011;61553;48.994;8.940;2023-04-21T12:00:40;12.32;;;9.70;;
32321;SDS011;61553;48.994;8.940;2023-04-21T12:03:08;13.27;;;10.18;;
32321;SDS011;61553;48.994;8.940;2023-04-21T12:05:35;11.90;;;8.95;;
32321;SDS011;61553;48.994;8.940;2023-04-21T12:08:01;10.93;;;7.95;;
32321;SDS011;61553;48.994;8.940;2023-04-21T12:10:29;13.77;;;9.75;;
32321;SDS011;61553;48.994;8.940;2023-04-21T12:12:55;12.43;;;9.40;;
32321;SDS011;61553;48.994;8.940;2023-04-21T12:15:21;11.20;;;8.40;;
32321;SDS011;61553;48.994;8.940;2023-04-21T12:17:51;14.15;;;9.00;;
32321;SDS011;61553;48.994;8.940;2023-04-21T12:20:18;13.88;;;8.90;;
32321;SDS011;61553;48.994;8.940;2023-04-21T12:22:45;13.85;;;8.50;;
32321;SDS011;61553;48.994;8.940;2023-04-21T12:25:12;11.88;;;8.02;;
32321;SDS011;61553;48.994;8.940;2023-04-21T12:27:51;12.07;;;8.55;;
32321;SDS011;61553;48.994;8.940;2023-04-21T12:30:18;10.27;;;7.60;;
32321;SDS011;61553;48.994;8.940;2023-04-21T12:32:45;14.48;;;9.40;;
32321;SDS011;61553;48.994;8.940;2023-04-21T12:35:12;14.43;;;11.23;;
32321;SDS011;61553;48.994;8.940;2023-04-21T12:37:37;12.15;;;8.73;;
32321;SDS011;61553;48.994;8.940;2023-04-21T12:40:03;11.93;;;8.98;;
32321;SDS011;61553;48.994;8.940;2023-04-21T12:42:29;13.73;;;8.95;;
32321;SDS011;61553;48.994;8.940;2023-04-21T12:44:55;12.98;;;8.02;;
32321;SDS011;61553;48.994;8.940;2023-04-21T12:47:21;11.50;;;8.07;;
32321;SDS011;61553;48.994;8.940;2023-04-21T12:49:47;10.32;;;7.15;;
32321;SDS011;61553;48.994;8.940;2023-04-21T12:52:12;10.73;;;7.45;;
32321;SDS011;61553;48.994;8.940;2023-04-21T12:54:38;11.50;;;8.15;;
32321;SDS011;61553;48.994;8.940;2023-04-21T12:57:04;11.50;;;8.90;;
32321;SDS011;61553;48.994;8.940;2023-04-21T12:59:31;11.27;;;7.57;;
32321;SDS011;61553;48.994;8.940;2023-04-21T13:01:56;10.48;;;7.80;;
32321;SDS011;61553;48.994;8.940;2023-04-21T13:04:22;11.25;;;8.20;;
32321;SDS011;61553;48.994;8.940;2023-04-21T13:06:47;11.55;;;8.10;;
32321;SDS011;61553;48.994;8.940;2023-04-21T13:09:13;10.10;;;7.22;;
32321;SDS011;61553;48.994;8.940;2023-04-21T13:11:39;12.50;;;7.85;;
32321;SDS011;61553;48.994;8.940;2023-04-21T13:14:05;10.05;;;7.55;;
32321;SDS011;61553;48.994;8.940;2023-04-21T13:16:31;10.55;;;7.05;;
32321;SDS011;61553;48.994;8.940;2023-04-21T13:18:57;10.73;;;7.78;;
32321;SDS011;61553;48.994;8.940;2023-04-21T13:21:23;10.45;;;5.82;;
32321;SDS011;61553;48.994;8.940;2023-04-21T13:23:48;9.73;;;6.22;;
32321;SDS011;61553;48.994;8.940;2023-04-21T13:26:14;8.73;;;6.45;;
32321;SDS011;61553;48.994;8.940;2023-04-21T13:28:40;10.57;;;6.80;;
32321;SDS011;61553;48.994;8.940;2023-04-21T13:31:05;9.75;;;6.70;;
32321;SDS011;61553;48.994;8.940;2023-04-21T13:33:31;9.43;;;6.43;;
32321;SDS011;61553;48.994;8.940;2023-04-21T13:35:59;8.75;;;6.35;;
32321;SDS011;61553;48.994;8.940;2023-04-21T13:38:26;9.68;;;5.90;;
32321;SDS011;61553;48.994;8.940;2023-04-21T13:40:52;11.25;;;7.38;;
32321;SDS011;61553;48.994;8.940;2023-04-21T13:43:18;11.07;;;7.40;;
32321;SDS011;61553;48.994;8.940;2023-04-21T13:45:43;10.00;;;6.53;;
32321;SDS011;61553;48.994;8.940;2023-04-21T13:48:11;10.02;;;7.20;;
32321;SDS011;61553;48.994;8.940;2023-04-21T13:50:36;11.23;;;7.47;;
32321;SDS011;61553;48.994;8.940;2023-04-21T13:53:02;9.80;;;7.10;;
32321;SDS011;61553;48.994;8.940;2023-04-21T13:55:28;9.88;;;7.50;;
32321;SDS011;61553;48.994;8.940;2023-04-21T13:57:53;13.80;;;8.57;;
32321;SDS011;61553;48.994;8.940;2023-04-21T14:00:19;10.90;;;8.10;;
32321;SDS011;61553;48.994;8.940;2023-04-21T14:02:46;11.15;;;7.05;;
32321;SDS011;61553;48.994;8.940;2023-04-21T14:05:12;10.88;;;7.20;;
32321;SDS011;61553;48.994;8.940;2023-04-21T14:07:37;9.63;;;7.35;;
32321;SDS011;61553;48.994;8.940;2023-04-21T14:10:03;10.85;;;7.22;;
32321;SDS011;61553;48.994;8.940;2023-04-21T14:12:29;11.73;;;6.72;;
32321;SDS011;61553;48.994;8.940;2023-04-21T14:14:55;8.60;;;6.55;;
32321;SDS011;61553;48.994;8.940;2023-04-21T14:17:20;8.90;;;6.15;;
32321;SDS011;61553;48.994;8.940;2023-04-21T14:19:47;11.75;;;6.95;;
32321;SDS011;61553;48.994;8.940;2023-04-21T14:22:12;11.25;;;7.57;;
32321;SDS011;61553;48.994;8.940;2023-04-21T14:24:38;10.13;;;7.55;;
32321;SDS011;61553;48.994;8.940;2023-04-21T14:27:04;9.10;;;6.93;;
32321;SDS011;61553;48.994;8.940;2023-04-21T14:29:30;9.50;;;6.18;;
32321;SDS011;61553;48.994;8.940;2023-04-21T14:31:56;8.48;;;6.43;;
32321;SDS011;61553;48.994;8.940;2023-04-21T14:34:25;9.20;;;6.75;;
32321;SDS011;61553;48.994;8.940;2023-04-21T14:36:51;9.18;;;6.95;;
32321;SDS011;61553;48.994;8.940;2023-04-21T14:39:17;9.57;;;6.15;;
32321;SDS011;61553;48.994;8.940;2023-04-21T14:41:43;7.63;;;5.90;;
32321;SDS011;61553;48.994;8.940;2023-04-21T14:44:08;10.65;;;6.65;;
32321;SDS011;61553;48.994;8.940;2023-04-21T14:46:34;8.80;;;6.57;;